Florence, Oregon
Current Conditions -  °F | °C
As of 2:55 PM on Saturday 20 Dec 2014 (Local Time) from KOTH Reporting Station
Overcast Overcast  
Wind Chill: 57°   Ceiling: 900
Heat Index: 57°   Visibility: 1.5mi
Dew Point: 55°   Wind: 17mph
Humidity: 94%   Direction: 210°SSW
Pressure: 29.83"   Gusts: 24mph
Location:  43.97°N, 124.1°W
Report Text: KOTH 202255Z 21015G21KT 1 1/2SM OVC009 14/13 A2983 RMK AO1 RA BR P0005
Loading
Personal Weather Stations






























Interactive Weather Map New forecast layout! Learn more

10-Day Weather Forecast

Advertisements
Track Severe Weather on mobile